Terminal Aerodrome Forecast
Issued by NWS

Home | Current Version | Previous Version | Text Only | Print | Product List | Glossary On
Versions: 1 2 3 4 5 6 7 8 9 10 11 12
000
FTUS42 TJSJ 020500
TAFKPK
TAF
TKPK 020525Z 0206/0306 08007KT P6SM VCSH SCT015 SCT040
     FM021800 07011KT P6SM FEW021
     FM022250 08006KT P6SM SCT021=

USA.gov is the U.S. government's official web portal to all federal, state and local government web resources and services.